Aviation Digital Data Service (ADDS)

Output produced by METARs form (0649 UTC 30 October 2020)
found at http://www.aviationweather.gov/metar/data/
 
METAR text: VVCI 300630Z 05005KT 010V080 9999 OVC016 23/21 Q1016 NOSIG
Conditions at: VVCI (CAT VI , VN) observed 0630 UTC 30 October 2020
Temperature: 23.0°C (73°F)
Dewpoint: 21.0°C (70°F) [RH = 89%]
Pressure (altimeter): 30.00 inches Hg (1016.0 mb)
Winds: from the NE (50 degrees) at 6 MPH (5 knots; 2.6 m/s)
Visibility: 6 or more miles (10+ km)
Ceiling: 1600 feet AGL
Clouds: overcast cloud deck at 1600 feet AGL
Weather: no significant weather observed at this time

METAR text: VVCI 300600Z 03005KT 9999 FEW016 BKN018 23/21 Q1016 NOSIG
Conditions at: VVCI (CAT VI , VN) observed 0600 UTC 30 October 2020
Temperature: 23.0°C (73°F)
Dewpoint: 21.0°C (70°F) [RH = 89%]
Pressure (altimeter): 30.00 inches Hg (1016.0 mb)
Winds: from the NNE (30 degrees) at 6 MPH (5 knots; 2.6 m/s)
Visibility: 6 or more miles (10+ km)
Ceiling: 1800 feet AGL
Clouds: few clouds at 1600 feet AGL
broken clouds at 1800 feet AGL
Weather: no significant weather observed at this time

METAR text: VVCI 300530Z 03006KT 340V060 9999 FEW015 BKN019 23/21 Q1017 NOSIG
Conditions at: VVCI (CAT VI , VN) observed 0530 UTC 30 October 2020
Temperature: 23.0°C (73°F)
Dewpoint: 21.0°C (70°F) [RH = 89%]
Pressure (altimeter): 30.03 inches Hg (1017.0 mb)
Winds: from the NNE (30 degrees) at 7 MPH (6 knots; 3.1 m/s)
Visibility: 6 or more miles (10+ km)
Ceiling: 1900 feet AGL
Clouds: few clouds at 1500 feet AGL
broken clouds at 1900 feet AGL
Weather: no significant weather observed at this time

METAR text: VVCI 300500Z 01005KT 330V060 9999 FEW016 BKN018 23/21 Q1017 NOSIG
Conditions at: VVCI (CAT VI , VN) observed 0500 UTC 30 October 2020
Temperature: 23.0°C (73°F)
Dewpoint: 21.0°C (70°F) [RH = 89%]
Pressure (altimeter): 30.03 inches Hg (1017.0 mb)
Winds: from the N (10 degrees) at 6 MPH (5 knots; 2.6 m/s)
Visibility: 6 or more miles (10+ km)
Ceiling: 1800 feet AGL
Clouds: few clouds at 1600 feet AGL
broken clouds at 1800 feet AGL
Weather: no significant weather observed at this time

METAR text: VVCI 300430Z 36004KT 330V050 9999 -RA FEW010 OVC018 23/21 Q1017 NOSIG
Conditions at: VVCI (CAT VI , VN) observed 0430 UTC 30 October 2020
Temperature: 23.0°C (73°F)
Dewpoint: 21.0°C (70°F) [RH = 89%]
Pressure (altimeter): 30.03 inches Hg (1017.0 mb)
Winds: from the N (360 degrees) at 5 MPH (4 knots; 2.1 m/s)
Visibility: 6 or more miles (10+ km)
Ceiling: 1800 feet AGL
Clouds: few clouds at 1000 feet AGL
overcast cloud deck at 1800 feet AGL
Weather: -RA  (light rain)

METAR text: VVCI 300400Z 01004KT 340V040 9999 FEW013 OVC022 23/21 Q1018 NOSIG
Conditions at: VVCI (CAT VI , VN) observed 0400 UTC 30 October 2020
Temperature: 23.0°C (73°F)
Dewpoint: 21.0°C (70°F) [RH = 89%]
Pressure (altimeter): 30.06 inches Hg (1018.0 mb)
Winds: from the N (10 degrees) at 5 MPH (4 knots; 2.1 m/s)
Visibility: 6 or more miles (10+ km)
Ceiling: 2200 feet AGL
Clouds: few clouds at 1300 feet AGL
overcast cloud deck at 2200 feet AGL
Weather: no significant weather observed at this time

METAR text: VVCI 300330Z 34005KT 300V010 7000 FEW007 OVC023 23/21 Q1018 NOSIG
Conditions at: VVCI (CAT VI , VN) observed 0330 UTC 30 October 2020
Temperature: 23.0°C (73°F)
Dewpoint: 21.0°C (70°F) [RH = 89%]
Pressure (altimeter): 30.06 inches Hg (1018.0 mb)
Winds: from the NNW (340 degrees) at 6 MPH (5 knots; 2.6 m/s)
Visibility: 4 miles ( 7 km)
Ceiling: 2300 feet AGL
Clouds: few clouds at 700 feet AGL
overcast cloud deck at 2300 feet AGL
Weather: no significant weather observed at this time

METAR text: VVCI 300300Z 32005KT 290V360 4500 BR FEW007 BKN024 22/21 Q1019 BECMG 6000 NSW
Conditions at: VVCI (CAT VI , VN) observed 0300 UTC 30 October 2020
Temperature: 22.0°C (72°F)
Dewpoint: 21.0°C (70°F) [RH = 94%]
Pressure (altimeter): 30.09 inches Hg (1019.0 mb)
Winds: from the NW (320 degrees) at 6 MPH (5 knots; 2.6 m/s)
Visibility: 2.80 miles (4.51 km)
Ceiling: 2400 feet AGL
Clouds: few clouds at 700 feet AGL
broken clouds at 2400 feet AGL
Weather: BR  (mist)

METAR text: VVCI 300230Z 32004KT 2800 -RA BR FEW007 SCT015 BKN022 22/21 Q1019 BECMG 6000 NSW
Conditions at: VVCI (CAT VI , VN) observed 0230 UTC 30 October 2020
Temperature: 22.0°C (72°F)
Dewpoint: 21.0°C (70°F) [RH = 94%]
Pressure (altimeter): 30.09 inches Hg (1019.0 mb)
Winds: from the NW (320 degrees) at 5 MPH (4 knots; 2.1 m/s)
Visibility: 1.74 miles (2.80 km)
Ceiling: 2200 feet AGL
Clouds: few clouds at 700 feet AGL
scattered clouds at 1500 feet AGL
broken clouds at 2200 feet AGL
Weather: -RA BR  (light rain, mist)

METAR text: VVCI 300200Z 31004KT 3500 -RA BR SCT020 OVC024 22/21 Q1019 BECMG 6000 NSW
Conditions at: VVCI (CAT VI , VN) observed 0200 UTC 30 October 2020
Temperature: 22.0°C (72°F)
Dewpoint: 21.0°C (70°F) [RH = 94%]
Pressure (altimeter): 30.09 inches Hg (1019.0 mb)
Winds: from the NW (310 degrees) at 5 MPH (4 knots; 2.1 m/s)
Visibility: 2.17 miles (3.49 km)
Ceiling: 2400 feet AGL
Clouds: scattered clouds at 2000 feet AGL
overcast cloud deck at 2400 feet AGL
Weather: -RA BR  (light rain, mist)

METAR text: VVCI 300130Z VRB02KT 4000 -RA BR BKN020 OVC024 22/21 Q1018 BECMG 6000 NSW
Conditions at: VVCI (CAT VI , VN) observed 0130 UTC 30 October 2020
Temperature: 22.0°C (72°F)
Dewpoint: 21.0°C (70°F) [RH = 94%]
Pressure (altimeter): 30.06 inches Hg (1018.0 mb)
Winds: variable direction winds at 2 MPH (2 knots; 1.0 m/s)
Visibility: 2.49 miles (4.01 km)
Ceiling: 2000 feet AGL
Clouds: broken clouds at 2000 feet AGL
overcast cloud deck at 2400 feet AGL
Weather: -RA BR  (light rain, mist)

METAR text: VVCI 300100Z 33003KT 300V010 9999 OVC022 22/20 Q1018 NOSIG
Conditions at: VVCI (CAT VI , VN) observed 0100 UTC 30 October 2020
Temperature: 22.0°C (72°F)
Dewpoint: 20.0°C (68°F) [RH = 88%]
Pressure (altimeter): 30.06 inches Hg (1018.0 mb)
Winds: from the NNW (330 degrees) at 3 MPH (3 knots; 1.5 m/s)
Visibility: 6 or more miles (10+ km)
Ceiling: 2200 feet AGL
Clouds: overcast cloud deck at 2200 feet AGL
Weather: no significant weather observed at this time

METAR text: VVCI 300030Z 36004KT 330V040 9999 OVC024 22/20 Q1017 NOSIG
Conditions at: VVCI (CAT VI , VN) observed 0030 UTC 30 October 2020
Temperature: 22.0°C (72°F)
Dewpoint: 20.0°C (68°F) [RH = 88%]
Pressure (altimeter): 30.03 inches Hg (1017.0 mb)
Winds: from the N (360 degrees) at 5 MPH (4 knots; 2.1 m/s)
Visibility: 6 or more miles (10+ km)
Ceiling: 2400 feet AGL
Clouds: overcast cloud deck at 2400 feet AGL
Weather: no significant weather observed at this time

METAR text: VVCI 300000Z 01004KT 340V040 9999 OVC024 22/20 Q1017 NOSIG
Conditions at: VVCI (CAT VI , VN) observed 0000 UTC 30 October 2020
Temperature: 22.0°C (72°F)
Dewpoint: 20.0°C (68°F) [RH = 88%]
Pressure (altimeter): 30.03 inches Hg (1017.0 mb)
Winds: from the N (10 degrees) at 5 MPH (4 knots; 2.1 m/s)
Visibility: 6 or more miles (10+ km)
Ceiling: 2400 feet AGL
Clouds: overcast cloud deck at 2400 feet AGL
Weather: no significant weather observed at this time

METAR text: VVCI 292330Z 01006KT 9999 -RA OVC025 22/20 Q1016 NOSIG
Conditions at: VVCI (CAT VI , VN) observed 2330 UTC 29 October 2020
Temperature: 22.0°C (72°F)
Dewpoint: 20.0°C (68°F) [RH = 88%]
Pressure (altimeter): 30.00 inches Hg (1016.0 mb)
Winds: from the N (10 degrees) at 7 MPH (6 knots; 3.1 m/s)
Visibility: 6 or more miles (10+ km)
Ceiling: 2500 feet AGL
Clouds: overcast cloud deck at 2500 feet AGL
Weather: -RA  (light rain)

METAR text: VVCI 292300Z 01006KT 340V040 9999 -RA OVC024 22/20 Q1016 NOSIG
Conditions at: VVCI (CAT VI , VN) observed 2300 UTC 29 October 2020
Temperature: 22.0°C (72°F)
Dewpoint: 20.0°C (68°F) [RH = 88%]
Pressure (altimeter): 30.00 inches Hg (1016.0 mb)
Winds: from the N (10 degrees) at 7 MPH (6 knots; 3.1 m/s)
Visibility: 6 or more miles (10+ km)
Ceiling: 2400 feet AGL
Clouds: overcast cloud deck at 2400 feet AGL
Weather: -RA  (light rain)

METAR text: VVCI 292230Z 01005KT 340V040 9999 OVC025 22/20 Q1016 NOSIG
Conditions at: VVCI (CAT VI , VN) observed 2230 UTC 29 October 2020
Temperature: 22.0°C (72°F)
Dewpoint: 20.0°C (68°F) [RH = 88%]
Pressure (altimeter): 30.00 inches Hg (1016.0 mb)
Winds: from the N (10 degrees) at 6 MPH (5 knots; 2.6 m/s)
Visibility: 6 or more miles (10+ km)
Ceiling: 2500 feet AGL
Clouds: overcast cloud deck at 2500 feet AGL
Weather: no significant weather observed at this time

METAR text: VVCI 292200Z 01006KT 9999 OVC026 21/20 Q1015 NOSIG
Conditions at: VVCI (CAT VI , VN) observed 2200 UTC 29 October 2020
Temperature: 21.0°C (70°F)
Dewpoint: 20.0°C (68°F) [RH = 94%]
Pressure (altimeter): 29.97 inches Hg (1015.0 mb)
Winds: from the N (10 degrees) at 7 MPH (6 knots; 3.1 m/s)
Visibility: 6 or more miles (10+ km)
Ceiling: 2600 feet AGL
Clouds: overcast cloud deck at 2600 feet AGL
Weather: no significant weather observed at this time

METAR text: VVCI 292130Z 02005KT 9999 FEW009 OVC027 21/20 Q1015 NOSIG
Conditions at: VVCI (CAT VI , VN) observed 2130 UTC 29 October 2020
Temperature: 21.0°C (70°F)
Dewpoint: 20.0°C (68°F) [RH = 94%]
Pressure (altimeter): 29.97 inches Hg (1015.0 mb)
Winds: from the NNE (20 degrees) at 6 MPH (5 knots; 2.6 m/s)
Visibility: 6 or more miles (10+ km)
Ceiling: 2700 feet AGL
Clouds: few clouds at 900 feet AGL
overcast cloud deck at 2700 feet AGL
Weather: no significant weather observed at this time

METAR text: VVCI 292100Z 02006KT 9999 -RA FEW009 OVC028 21/20 Q1015 NOSIG
Conditions at: VVCI (CAT VI , VN) observed 2100 UTC 29 October 2020
Temperature: 21.0°C (70°F)
Dewpoint: 20.0°C (68°F) [RH = 94%]
Pressure (altimeter): 29.97 inches Hg (1015.0 mb)
Winds: from the NNE (20 degrees) at 7 MPH (6 knots; 3.1 m/s)
Visibility: 6 or more miles (10+ km)
Ceiling: 2800 feet AGL
Clouds: few clouds at 900 feet AGL
overcast cloud deck at 2800 feet AGL
Weather: -RA  (light rain)

METAR text: VVCI 292030Z 04006KT 9999 -RA FEW019 BKN033 21/20 Q1015 NOSIG
Conditions at: VVCI (CAT VI , VN) observed 2030 UTC 29 October 2020
Temperature: 21.0°C (70°F)
Dewpoint: 20.0°C (68°F) [RH = 94%]
Pressure (altimeter): 29.97 inches Hg (1015.0 mb)
Winds: from the NE (40 degrees) at 7 MPH (6 knots; 3.1 m/s)
Visibility: 6 or more miles (10+ km)
Ceiling: 3300 feet AGL
Clouds: few clouds at 1900 feet AGL
broken clouds at 3300 feet AGL
Weather: -RA  (light rain)

METAR text: VVCI 292000Z 04006KT 9999 FEW031 OVC036 22/20 Q1015 NOSIG
Conditions at: VVCI (CAT VI , VN) observed 2000 UTC 29 October 2020
Temperature: 22.0°C (72°F)
Dewpoint: 20.0°C (68°F) [RH = 88%]
Pressure (altimeter): 29.97 inches Hg (1015.0 mb)
Winds: from the NE (40 degrees) at 7 MPH (6 knots; 3.1 m/s)
Visibility: 6 or more miles (10+ km)
Ceiling: 3600 feet AGL
Clouds: few clouds at 3100 feet AGL
overcast cloud deck at 3600 feet AGL
Weather: no significant weather observed at this time

METAR text: VVCI 291930Z 04006KT 9999 FEW031 OVC036 22/20 Q1015 NOSIG
Conditions at: VVCI (CAT VI , VN) observed 1930 UTC 29 October 2020
Temperature: 22.0°C (72°F)
Dewpoint: 20.0°C (68°F) [RH = 88%]
Pressure (altimeter): 29.97 inches Hg (1015.0 mb)
Winds: from the NE (40 degrees) at 7 MPH (6 knots; 3.1 m/s)
Visibility: 6 or more miles (10+ km)
Ceiling: 3600 feet AGL
Clouds: few clouds at 3100 feet AGL
overcast cloud deck at 3600 feet AGL
Weather: no significant weather observed at this time

METAR text: VVCI 291900Z 04008KT 9999 BKN027 23/19 Q1016 NOSIG
Conditions at: VVCI (CAT VI , VN) observed 1900 UTC 29 October 2020
Temperature: 23.0°C (73°F)
Dewpoint: 19.0°C (66°F) [RH = 78%]
Pressure (altimeter): 30.00 inches Hg (1016.0 mb)
Winds: from the NE (40 degrees) at 9 MPH (8 knots; 4.1 m/s)
Visibility: 6 or more miles (10+ km)
Ceiling: 2700 feet AGL
Clouds: broken clouds at 2700 feet AGL
Weather: no significant weather observed at this time

METAR text: VVCI 291830Z 04007KT 9999 OVC027 23/19 Q1016 NOSIG
Conditions at: VVCI (CAT VI , VN) observed 1830 UTC 29 October 2020
Temperature: 23.0°C (73°F)
Dewpoint: 19.0°C (66°F) [RH = 78%]
Pressure (altimeter): 30.00 inches Hg (1016.0 mb)
Winds: from the NE (40 degrees) at 8 MPH (7 knots; 3.6 m/s)
Visibility: 6 or more miles (10+ km)
Ceiling: 2700 feet AGL
Clouds: overcast cloud deck at 2700 feet AGL
Weather: no significant weather observed at this time

METAR text: VVCI 291800Z 04006KT 9999 OVC028 23/19 Q1016 NOSIG
Conditions at: VVCI (CAT VI , VN) observed 1800 UTC 29 October 2020
Temperature: 23.0°C (73°F)
Dewpoint: 19.0°C (66°F) [RH = 78%]
Pressure (altimeter): 30.00 inches Hg (1016.0 mb)
Winds: from the NE (40 degrees) at 7 MPH (6 knots; 3.1 m/s)
Visibility: 6 or more miles (10+ km)
Ceiling: 2800 feet AGL
Clouds: overcast cloud deck at 2800 feet AGL
Weather: no significant weather observed at this time

METAR text: VVCI 291730Z 04006KT 9999 OVC029 23/19 Q1016 NOSIG
Conditions at: VVCI (CAT VI , VN) observed 1730 UTC 29 October 2020
Temperature: 23.0°C (73°F)
Dewpoint: 19.0°C (66°F) [RH = 78%]
Pressure (altimeter): 30.00 inches Hg (1016.0 mb)
Winds: from the NE (40 degrees) at 7 MPH (6 knots; 3.1 m/s)
Visibility: 6 or more miles (10+ km)
Ceiling: 2900 feet AGL
Clouds: overcast cloud deck at 2900 feet AGL
Weather: no significant weather observed at this time

METAR text: VVCI 291700Z 05006KT 9999 BKN030 23/19 Q1016 NOSIG
Conditions at: VVCI (CAT VI , VN) observed 1700 UTC 29 October 2020
Temperature: 23.0°C (73°F)
Dewpoint: 19.0°C (66°F) [RH = 78%]
Pressure (altimeter): 30.00 inches Hg (1016.0 mb)
Winds: from the NE (50 degrees) at 7 MPH (6 knots; 3.1 m/s)
Visibility: 6 or more miles (10+ km)
Ceiling: 3000 feet AGL
Clouds: broken clouds at 3000 feet AGL
Weather: no significant weather observed at this time

METAR text: VVCI 291630Z 04007KT 360V060 9999 BKN030 23/19 Q1017 NOSIG
Conditions at: VVCI (CAT VI , VN) observed 1630 UTC 29 October 2020
Temperature: 23.0°C (73°F)
Dewpoint: 19.0°C (66°F) [RH = 78%]
Pressure (altimeter): 30.03 inches Hg (1017.0 mb)
Winds: from the NE (40 degrees) at 8 MPH (7 knots; 3.6 m/s)
Visibility: 6 or more miles (10+ km)
Ceiling: 3000 feet AGL
Clouds: broken clouds at 3000 feet AGL
Weather: no significant weather observed at this time

METAR text: VVCI 291600Z 04007KT 010V070 9999 OVC029 23/19 Q1017 NOSIG
Conditions at: VVCI (CAT VI , VN) observed 1600 UTC 29 October 2020
Temperature: 23.0°C (73°F)
Dewpoint: 19.0°C (66°F) [RH = 78%]
Pressure (altimeter): 30.03 inches Hg (1017.0 mb)
Winds: from the NE (40 degrees) at 8 MPH (7 knots; 3.6 m/s)
Visibility: 6 or more miles (10+ km)
Ceiling: 2900 feet AGL
Clouds: overcast cloud deck at 2900 feet AGL
Weather: no significant weather observed at this time

METAR text: VVCI 291530Z 04008KT 9999 OVC029 23/19 Q1016 NOSIG
Conditions at: VVCI (CAT VI , VN) observed 1530 UTC 29 October 2020
Temperature: 23.0°C (73°F)
Dewpoint: 19.0°C (66°F) [RH = 78%]
Pressure (altimeter): 30.00 inches Hg (1016.0 mb)
Winds: from the NE (40 degrees) at 9 MPH (8 knots; 4.1 m/s)
Visibility: 6 or more miles (10+ km)
Ceiling: 2900 feet AGL
Clouds: overcast cloud deck at 2900 feet AGL
Weather: no significant weather observed at this time

METAR text: VVCI 291500Z 04008KT 9999 OVC029 23/19 Q1016 NOSIG
Conditions at: VVCI (CAT VI , VN) observed 1500 UTC 29 October 2020
Temperature: 23.0°C (73°F)
Dewpoint: 19.0°C (66°F) [RH = 78%]
Pressure (altimeter): 30.00 inches Hg (1016.0 mb)
Winds: from the NE (40 degrees) at 9 MPH (8 knots; 4.1 m/s)
Visibility: 6 or more miles (10+ km)
Ceiling: 2900 feet AGL
Clouds: overcast cloud deck at 2900 feet AGL
Weather: no significant weather observed at this time

METAR text: VVCI 291430Z 04008KT 9999 BKN030 24/19 Q1016 NOSIG
Conditions at: VVCI (CAT VI , VN) observed 1430 UTC 29 October 2020
Temperature: 24.0°C (75°F)
Dewpoint: 19.0°C (66°F) [RH = 74%]
Pressure (altimeter): 30.00 inches Hg (1016.0 mb)
Winds: from the NE (40 degrees) at 9 MPH (8 knots; 4.1 m/s)
Visibility: 6 or more miles (10+ km)
Ceiling: 3000 feet AGL
Clouds: broken clouds at 3000 feet AGL
Weather: no significant weather observed at this time

METAR text: VVCI 291400Z 04008KT 9999 BKN030 24/19 Q1016 NOSIG
Conditions at: VVCI (CAT VI , VN) observed 1400 UTC 29 October 2020
Temperature: 24.0°C (75°F)
Dewpoint: 19.0°C (66°F) [RH = 74%]
Pressure (altimeter): 30.00 inches Hg (1016.0 mb)
Winds: from the NE (40 degrees) at 9 MPH (8 knots; 4.1 m/s)
Visibility: 6 or more miles (10+ km)
Ceiling: 3000 feet AGL
Clouds: broken clouds at 3000 feet AGL
Weather: no significant weather observed at this time

METAR text: VVCI 291330Z 04008KT 010V070 9999 BKN029 24/19 Q1016 NOSIG
Conditions at: VVCI (CAT VI , VN) observed 1330 UTC 29 October 2020
Temperature: 24.0°C (75°F)
Dewpoint: 19.0°C (66°F) [RH = 74%]
Pressure (altimeter): 30.00 inches Hg (1016.0 mb)
Winds: from the NE (40 degrees) at 9 MPH (8 knots; 4.1 m/s)
Visibility: 6 or more miles (10+ km)
Ceiling: 2900 feet AGL
Clouds: broken clouds at 2900 feet AGL
Weather: no significant weather observed at this time

METAR text: VVCI 291300Z 04010KT 9999 BKN030 24/19 Q1016 NOSIG
Conditions at: VVCI (CAT VI , VN) observed 1300 UTC 29 October 2020
Temperature: 24.0°C (75°F)
Dewpoint: 19.0°C (66°F) [RH = 74%]
Pressure (altimeter): 30.00 inches Hg (1016.0 mb)
Winds: from the NE (40 degrees) at 12 MPH (10 knots; 5.1 m/s)
Visibility: 6 or more miles (10+ km)
Ceiling: 3000 feet AGL
Clouds: broken clouds at 3000 feet AGL
Weather: no significant weather observed at this time

METAR text: VVCI 291230Z 04009KT 9999 BKN030 24/19 Q1015 NOSIG
Conditions at: VVCI (CAT VI , VN) observed 1230 UTC 29 October 2020
Temperature: 24.0°C (75°F)
Dewpoint: 19.0°C (66°F) [RH = 74%]
Pressure (altimeter): 29.97 inches Hg (1015.0 mb)
Winds: from the NE (40 degrees) at 10 MPH (9 knots; 4.6 m/s)
Visibility: 6 or more miles (10+ km)
Ceiling: 3000 feet AGL
Clouds: broken clouds at 3000 feet AGL
Weather: no significant weather observed at this time

METAR text: VVCI 291200Z 03009KT 9999 OVC030 24/19 Q1014 NOSIG
Conditions at: VVCI (CAT VI , VN) observed 1200 UTC 29 October 2020
Temperature: 24.0°C (75°F)
Dewpoint: 19.0°C (66°F) [RH = 74%]
Pressure (altimeter): 29.94 inches Hg (1014.0 mb)
Winds: from the NNE (30 degrees) at 10 MPH (9 knots; 4.6 m/s)
Visibility: 6 or more miles (10+ km)
Ceiling: 3000 feet AGL
Clouds: overcast cloud deck at 3000 feet AGL
Weather: no significant weather observed at this time

METAR text: VVCI 291130Z 04010KT 9999 OVC029 24/19 Q1014 NOSIG
Conditions at: VVCI (CAT VI , VN) observed 1130 UTC 29 October 2020
Temperature: 24.0°C (75°F)
Dewpoint: 19.0°C (66°F) [RH = 74%]
Pressure (altimeter): 29.94 inches Hg (1014.0 mb)
Winds: from the NE (40 degrees) at 12 MPH (10 knots; 5.1 m/s)
Visibility: 6 or more miles (10+ km)
Ceiling: 2900 feet AGL
Clouds: overcast cloud deck at 2900 feet AGL
Weather: no significant weather observed at this time

METAR text: VVCI 291100Z 04010KT 9999 OVC029 24/19 Q1013 NOSIG
Conditions at: VVCI (CAT VI , VN) observed 1100 UTC 29 October 2020
Temperature: 24.0°C (75°F)
Dewpoint: 19.0°C (66°F) [RH = 74%]
Pressure (altimeter): 29.91 inches Hg (1013.0 mb)
Winds: from the NE (40 degrees) at 12 MPH (10 knots; 5.1 m/s)
Visibility: 6 or more miles (10+ km)
Ceiling: 2900 feet AGL
Clouds: overcast cloud deck at 2900 feet AGL
Weather: no significant weather observed at this time

METAR text: VVCI 291030Z 04010KT 9999 OVC030 24/19 Q1013 NOSIG
Conditions at: VVCI (CAT VI , VN) observed 1030 UTC 29 October 2020
Temperature: 24.0°C (75°F)
Dewpoint: 19.0°C (66°F) [RH = 74%]
Pressure (altimeter): 29.91 inches Hg (1013.0 mb)
Winds: from the NE (40 degrees) at 12 MPH (10 knots; 5.1 m/s)
Visibility: 6 or more miles (10+ km)
Ceiling: 3000 feet AGL
Clouds: overcast cloud deck at 3000 feet AGL
Weather: no significant weather observed at this time

METAR text: VVCI 291000Z 04011KT 010V070 9999 OVC029 24/19 Q1013 NOSIG
Conditions at: VVCI (CAT VI , VN) observed 1000 UTC 29 October 2020
Temperature: 24.0°C (75°F)
Dewpoint: 19.0°C (66°F) [RH = 74%]
Pressure (altimeter): 29.91 inches Hg (1013.0 mb)
Winds: from the NE (40 degrees) at 13 MPH (11 knots; 5.7 m/s)
Visibility: 6 or more miles (10+ km)
Ceiling: 2900 feet AGL
Clouds: overcast cloud deck at 2900 feet AGL
Weather: no significant weather observed at this time

METAR text: VVCI 290930Z 04010KT 9999 OVC030 24/20 Q1012 NOSIG
Conditions at: VVCI (CAT VI , VN) observed 0930 UTC 29 October 2020
Temperature: 24.0°C (75°F)
Dewpoint: 20.0°C (68°F) [RH = 78%]
Pressure (altimeter): 29.88 inches Hg (1012.0 mb)
Winds: from the NE (40 degrees) at 12 MPH (10 knots; 5.1 m/s)
Visibility: 6 or more miles (10+ km)
Ceiling: 3000 feet AGL
Clouds: overcast cloud deck at 3000 feet AGL
Weather: no significant weather observed at this time

METAR text: VVCI 290900Z 04009KT 9999 BKN030 25/20 Q1012 NOSIG
Conditions at: VVCI (CAT VI , VN) observed 0900 UTC 29 October 2020
Temperature: 25.0°C (77°F)
Dewpoint: 20.0°C (68°F) [RH = 74%]
Pressure (altimeter): 29.88 inches Hg (1012.0 mb)
Winds: from the NE (40 degrees) at 10 MPH (9 knots; 4.6 m/s)
Visibility: 6 or more miles (10+ km)
Ceiling: 3000 feet AGL
Clouds: broken clouds at 3000 feet AGL
Weather: no significant weather observed at this time

METAR text: VVCI 290830Z 05009KT 360V070 9999 OVC029 25/20 Q1012 NOSIG
Conditions at: VVCI (CAT VI , VN) observed 0830 UTC 29 October 2020
Temperature: 25.0°C (77°F)
Dewpoint: 20.0°C (68°F) [RH = 74%]
Pressure (altimeter): 29.88 inches Hg (1012.0 mb)
Winds: from the NE (50 degrees) at 10 MPH (9 knots; 4.6 m/s)
Visibility: 6 or more miles (10+ km)
Ceiling: 2900 feet AGL
Clouds: overcast cloud deck at 2900 feet AGL
Weather: no significant weather observed at this time

METAR text: VVCI 290800Z 04010KT 9999 OVC030 25/20 Q1012 NOSIG
Conditions at: VVCI (CAT VI , VN) observed 0800 UTC 29 October 2020
Temperature: 25.0°C (77°F)
Dewpoint: 20.0°C (68°F) [RH = 74%]
Pressure (altimeter): 29.88 inches Hg (1012.0 mb)
Winds: from the NE (40 degrees) at 12 MPH (10 knots; 5.1 m/s)
Visibility: 6 or more miles (10+ km)
Ceiling: 3000 feet AGL
Clouds: overcast cloud deck at 3000 feet AGL
Weather: no significant weather observed at this time

METAR text: VVCI 290730Z 05010KT 9999 BKN029 25/20 Q1012 NOSIG
Conditions at: VVCI (CAT VI , VN) observed 0730 UTC 29 October 2020
Temperature: 25.0°C (77°F)
Dewpoint: 20.0°C (68°F) [RH = 74%]
Pressure (altimeter): 29.88 inches Hg (1012.0 mb)
Winds: from the NE (50 degrees) at 12 MPH (10 knots; 5.1 m/s)
Visibility: 6 or more miles (10+ km)
Ceiling: 2900 feet AGL
Clouds: broken clouds at 2900 feet AGL
Weather: no significant weather observed at this time

METAR text: VVCI 290700Z 05011KT 9999 BKN029 25/21 Q1012 NOSIG
Conditions at: VVCI (CAT VI , VN) observed 0700 UTC 29 October 2020
Temperature: 25.0°C (77°F)
Dewpoint: 21.0°C (70°F) [RH = 79%]
Pressure (altimeter): 29.88 inches Hg (1012.0 mb)
Winds: from the NE (50 degrees) at 13 MPH (11 knots; 5.7 m/s)
Visibility: 6 or more miles (10+ km)
Ceiling: 2900 feet AGL
Clouds: broken clouds at 2900 feet AGL
Weather: no significant weather observed at this time

METAR text: VVCI 290630Z 05013KT 9999 OVC028 25/21 Q1012 NOSIG
Conditions at: VVCI (CAT VI , VN) observed 0630 UTC 29 October 2020
Temperature: 25.0°C (77°F)
Dewpoint: 21.0°C (70°F) [RH = 79%]
Pressure (altimeter): 29.88 inches Hg (1012.0 mb)
Winds: from the NE (50 degrees) at 15 MPH (13 knots; 6.7 m/s)
Visibility: 6 or more miles (10+ km)
Ceiling: 2800 feet AGL
Clouds: overcast cloud deck at 2800 feet AGL
Weather: no significant weather observed at this time

METAR text: VVCI 290600Z 05012G23KT 9999 BKN025 OVC031 26/21 Q1013 NOSIG
Conditions at: VVCI (CAT VI , VN) observed 0600 UTC 29 October 2020
Temperature: 26.0°C (79°F)
Dewpoint: 21.0°C (70°F) [RH = 74%]
Pressure (altimeter): 29.91 inches Hg (1013.0 mb)
Winds: from the NE (50 degrees) at 14 MPH (12 knots; 6.2 m/s)
gusting to 26 MPH (23 knots; 11.8 m/s)
Visibility: 6 or more miles (10+ km)
Ceiling: 2500 feet AGL
Clouds: broken clouds at 2500 feet AGL
overcast cloud deck at 3100 feet AGL
Weather: no significant weather observed at this time

METAR text: VVCI 290530Z 05013KT 020V080 9999 BKN025 26/21 Q1013 NOSIG
Conditions at: VVCI (CAT VI , VN) observed 0530 UTC 29 October 2020
Temperature: 26.0°C (79°F)
Dewpoint: 21.0°C (70°F) [RH = 74%]
Pressure (altimeter): 29.91 inches Hg (1013.0 mb)
Winds: from the NE (50 degrees) at 15 MPH (13 knots; 6.7 m/s)
Visibility: 6 or more miles (10+ km)
Ceiling: 2500 feet AGL
Clouds: broken clouds at 2500 feet AGL
Weather: no significant weather observed at this time

METAR text: VVCI 290500Z 04012KT 020V080 9999 BKN024 25/21 Q1013 NOSIG
Conditions at: VVCI (CAT VI , VN) observed 0500 UTC 29 October 2020
Temperature: 25.0°C (77°F)
Dewpoint: 21.0°C (70°F) [RH = 79%]
Pressure (altimeter): 29.91 inches Hg (1013.0 mb)
Winds: from the NE (40 degrees) at 14 MPH (12 knots; 6.2 m/s)
Visibility: 6 or more miles (10+ km)
Ceiling: 2400 feet AGL
Clouds: broken clouds at 2400 feet AGL
Weather: no significant weather observed at this time

METAR text: VVCI 290430Z 04014KT 9999 BKN024 25/21 Q1013 NOSIG
Conditions at: VVCI (CAT VI , VN) observed 0430 UTC 29 October 2020
Temperature: 25.0°C (77°F)
Dewpoint: 21.0°C (70°F) [RH = 79%]
Pressure (altimeter): 29.91 inches Hg (1013.0 mb)
Winds: from the NE (40 degrees) at 16 MPH (14 knots; 7.2 m/s)
Visibility: 6 or more miles (10+ km)
Ceiling: 2400 feet AGL
Clouds: broken clouds at 2400 feet AGL
Weather: no significant weather observed at this time

METAR text: VVCI 290400Z 04011KT 9999 FEW024 BKN027 25/21 Q1014 NOSIG
Conditions at: VVCI (CAT VI , VN) observed 0400 UTC 29 October 2020
Temperature: 25.0°C (77°F)
Dewpoint: 21.0°C (70°F) [RH = 79%]
Pressure (altimeter): 29.94 inches Hg (1014.0 mb)
Winds: from the NE (40 degrees) at 13 MPH (11 knots; 5.7 m/s)
Visibility: 6 or more miles (10+ km)
Ceiling: 2700 feet AGL
Clouds: few clouds at 2400 feet AGL
broken clouds at 2700 feet AGL
Weather: no significant weather observed at this time

METAR text: VVCI 290330Z 04012KT 9999 FEW023 BKN026 26/21 Q1014 NOSIG
Conditions at: VVCI (CAT VI , VN) observed 0330 UTC 29 October 2020
Temperature: 26.0°C (79°F)
Dewpoint: 21.0°C (70°F) [RH = 74%]
Pressure (altimeter): 29.94 inches Hg (1014.0 mb)
Winds: from the NE (40 degrees) at 14 MPH (12 knots; 6.2 m/s)
Visibility: 6 or more miles (10+ km)
Ceiling: 2600 feet AGL
Clouds: few clouds at 2300 feet AGL
broken clouds at 2600 feet AGL
Weather: no significant weather observed at this time

METAR text: VVCI 290300Z 04011KT 9999 BKN025 24/21 Q1015 NOSIG
Conditions at: VVCI (CAT VI , VN) observed 0300 UTC 29 October 2020
Temperature: 24.0°C (75°F)
Dewpoint: 21.0°C (70°F) [RH = 83%]
Pressure (altimeter): 29.97 inches Hg (1015.0 mb)
Winds: from the NE (40 degrees) at 13 MPH (11 knots; 5.7 m/s)
Visibility: 6 or more miles (10+ km)
Ceiling: 2500 feet AGL
Clouds: broken clouds at 2500 feet AGL
Weather: no significant weather observed at this time

METAR text: VVCI 290230Z 04009KT 020V080 9999 BKN025 OVC048 24/21 Q1015 NOSIG
Conditions at: VVCI (CAT VI , VN) observed 0230 UTC 29 October 2020
Temperature: 24.0°C (75°F)
Dewpoint: 21.0°C (70°F) [RH = 83%]
Pressure (altimeter): 29.97 inches Hg (1015.0 mb)
Winds: from the NE (40 degrees) at 10 MPH (9 knots; 4.6 m/s)
Visibility: 6 or more miles (10+ km)
Ceiling: 2500 feet AGL
Clouds: broken clouds at 2500 feet AGL
overcast cloud deck at 4800 feet AGL
Weather: no significant weather observed at this time

METAR text: VVCI 290200Z 03009KT 9999 BKN026 24/21 Q1014 NOSIG
Conditions at: VVCI (CAT VI , VN) observed 0200 UTC 29 October 2020
Temperature: 24.0°C (75°F)
Dewpoint: 21.0°C (70°F) [RH = 83%]
Pressure (altimeter): 29.94 inches Hg (1014.0 mb)
Winds: from the NNE (30 degrees) at 10 MPH (9 knots; 4.6 m/s)
Visibility: 6 or more miles (10+ km)
Ceiling: 2600 feet AGL
Clouds: broken clouds at 2600 feet AGL
Weather: no significant weather observed at this time

METAR text: VVCI 290130Z 04008KT 9999 BKN026 23/21 Q1014 NOSIG
Conditions at: VVCI (CAT VI , VN) observed 0130 UTC 29 October 2020
Temperature: 23.0°C (73°F)
Dewpoint: 21.0°C (70°F) [RH = 89%]
Pressure (altimeter): 29.94 inches Hg (1014.0 mb)
Winds: from the NE (40 degrees) at 9 MPH (8 knots; 4.1 m/s)
Visibility: 6 or more miles (10+ km)
Ceiling: 2600 feet AGL
Clouds: broken clouds at 2600 feet AGL
Weather: no significant weather observed at this time

METAR text: VVCI 290100Z 03010KT 9999 SCT026 23/21 Q1013 NOSIG
Conditions at: VVCI (CAT VI , VN) observed 0100 UTC 29 October 2020
Temperature: 23.0°C (73°F)
Dewpoint: 21.0°C (70°F) [RH = 89%]
Pressure (altimeter): 29.91 inches Hg (1013.0 mb)
Winds: from the NNE (30 degrees) at 12 MPH (10 knots; 5.1 m/s)
Visibility: 6 or more miles (10+ km)
Ceiling: at least 12,000 feet AGL
Clouds: scattered clouds at 2600 feet AGL
Weather: no significant weather observed at this time

METAR text: VVCI 290030Z 03009KT 9999 -RA BKN024 22/21 Q1013 NOSIG
Conditions at: VVCI (CAT VI , VN) observed 0030 UTC 29 October 2020
Temperature: 22.0°C (72°F)
Dewpoint: 21.0°C (70°F) [RH = 94%]
Pressure (altimeter): 29.91 inches Hg (1013.0 mb)
Winds: from the NNE (30 degrees) at 10 MPH (9 knots; 4.6 m/s)
Visibility: 6 or more miles (10+ km)
Ceiling: 2400 feet AGL
Clouds: broken clouds at 2400 feet AGL
Weather: -RA  (light rain)

METAR text: VVCI 290000Z 04010KT 9999 -RA FEW023 BKN026 22/21 Q1013 NOSIG
Conditions at: VVCI (CAT VI , VN) observed 0000 UTC 29 October 2020
Temperature: 22.0°C (72°F)
Dewpoint: 21.0°C (70°F) [RH = 94%]
Pressure (altimeter): 29.91 inches Hg (1013.0 mb)
Winds: from the NE (40 degrees) at 12 MPH (10 knots; 5.1 m/s)
Visibility: 6 or more miles (10+ km)
Ceiling: 2600 feet AGL
Clouds: few clouds at 2300 feet AGL
broken clouds at 2600 feet AGL
Weather: -RA  (light rain)

METAR text: VVCI 282330Z 04009KT 9999 -RA FEW019 BKN025 22/21 Q1012 NOSIG
Conditions at: VVCI (CAT VI , VN) observed 2330 UTC 28 October 2020
Temperature: 22.0°C (72°F)
Dewpoint: 21.0°C (70°F) [RH = 94%]
Pressure (altimeter): 29.88 inches Hg (1012.0 mb)
Winds: from the NE (40 degrees) at 10 MPH (9 knots; 4.6 m/s)
Visibility: 6 or more miles (10+ km)
Ceiling: 2500 feet AGL
Clouds: few clouds at 1900 feet AGL
broken clouds at 2500 feet AGL
Weather: -RA  (light rain)

METAR text: VVCI 282300Z 03009KT 350V060 9999 -RA FEW022 OVC049 22/21 Q1012 NOSIG
Conditions at: VVCI (CAT VI , VN) observed 2300 UTC 28 October 2020
Temperature: 22.0°C (72°F)
Dewpoint: 21.0°C (70°F) [RH = 94%]
Pressure (altimeter): 29.88 inches Hg (1012.0 mb)
Winds: from the NNE (30 degrees) at 10 MPH (9 knots; 4.6 m/s)
Visibility: 6 or more miles (10+ km)
Ceiling: 4900 feet AGL
Clouds: few clouds at 2200 feet AGL
overcast cloud deck at 4900 feet AGL
Weather: -RA  (light rain)

METAR text: VVCI 282230Z 03009KT 9999 -RA BKN027 OVC049 22/21 Q1012 NOSIG
Conditions at: VVCI (CAT VI , VN) observed 2230 UTC 28 October 2020
Temperature: 22.0°C (72°F)
Dewpoint: 21.0°C (70°F) [RH = 94%]
Pressure (altimeter): 29.88 inches Hg (1012.0 mb)
Winds: from the NNE (30 degrees) at 10 MPH (9 knots; 4.6 m/s)
Visibility: 6 or more miles (10+ km)
Ceiling: 2700 feet AGL
Clouds: broken clouds at 2700 feet AGL
overcast cloud deck at 4900 feet AGL
Weather: -RA  (light rain)

METAR text: VVCI 282200Z 04010KT 9999 -RA BKN028 OVC047 22/21 Q1011 NOSIG
Conditions at: VVCI (CAT VI , VN) observed 2200 UTC 28 October 2020
Temperature: 22.0°C (72°F)
Dewpoint: 21.0°C (70°F) [RH = 94%]
Pressure (altimeter): 29.85 inches Hg (1011.0 mb)
Winds: from the NE (40 degrees) at 12 MPH (10 knots; 5.1 m/s)
Visibility: 6 or more miles (10+ km)
Ceiling: 2800 feet AGL
Clouds: broken clouds at 2800 feet AGL
overcast cloud deck at 4700 feet AGL
Weather: -RA  (light rain)

METAR text: VVCI 282130Z 03008KT 9999 BKN027 22/21 Q1011 NOSIG
Conditions at: VVCI (CAT VI , VN) observed 2130 UTC 28 October 2020
Temperature: 22.0°C (72°F)
Dewpoint: 21.0°C (70°F) [RH = 94%]
Pressure (altimeter): 29.85 inches Hg (1011.0 mb)
Winds: from the NNE (30 degrees) at 9 MPH (8 knots; 4.1 m/s)
Visibility: 6 or more miles (10+ km)
Ceiling: 2700 feet AGL
Clouds: broken clouds at 2700 feet AGL
Weather: no significant weather observed at this time

METAR text: VVCI 282100Z 03009KT 9999 -RA BKN027 22/21 Q1011 NOSIG
Conditions at: VVCI (CAT VI , VN) observed 2100 UTC 28 October 2020
Temperature: 22.0°C (72°F)
Dewpoint: 21.0°C (70°F) [RH = 94%]
Pressure (altimeter): 29.85 inches Hg (1011.0 mb)
Winds: from the NNE (30 degrees) at 10 MPH (9 knots; 4.6 m/s)
Visibility: 6 or more miles (10+ km)
Ceiling: 2700 feet AGL
Clouds: broken clouds at 2700 feet AGL
Weather: -RA  (light rain)

METAR text: VVCI 282030Z 03010KT 9000 -RA BKN028 22/21 Q1011 NOSIG
Conditions at: VVCI (CAT VI , VN) observed 2030 UTC 28 October 2020
Temperature: 22.0°C (72°F)
Dewpoint: 21.0°C (70°F) [RH = 94%]
Pressure (altimeter): 29.85 inches Hg (1011.0 mb)
Winds: from the NNE (30 degrees) at 12 MPH (10 knots; 5.1 m/s)
Visibility: 6 miles ( 9 km)
Ceiling: 2800 feet AGL
Clouds: broken clouds at 2800 feet AGL
Weather: -RA  (light rain)

METAR text: VVCI 282000Z 03010KT 9000 -RA BKN028 22/21 Q1011 NOSIG
Conditions at: VVCI (CAT VI , VN) observed 2000 UTC 28 October 2020
Temperature: 22.0°C (72°F)
Dewpoint: 21.0°C (70°F) [RH = 94%]
Pressure (altimeter): 29.85 inches Hg (1011.0 mb)
Winds: from the NNE (30 degrees) at 12 MPH (10 knots; 5.1 m/s)
Visibility: 6 miles ( 9 km)
Ceiling: 2800 feet AGL
Clouds: broken clouds at 2800 feet AGL
Weather: -RA  (light rain)

METAR text: VVCI 281930Z 04009KT 9999 -RA FEW025 SCT032 22/21 Q1011 NOSIG
Conditions at: VVCI (CAT VI , VN) observed 1930 UTC 28 October 2020
Temperature: 22.0°C (72°F)
Dewpoint: 21.0°C (70°F) [RH = 94%]
Pressure (altimeter): 29.85 inches Hg (1011.0 mb)
Winds: from the NE (40 degrees) at 10 MPH (9 knots; 4.6 m/s)
Visibility: 6 or more miles (10+ km)
Ceiling: at least 12,000 feet AGL
Clouds: few clouds at 2500 feet AGL
scattered clouds at 3200 feet AGL
Weather: -RA  (light rain)

METAR text: VVCI 281900Z 04008KT 9999 BKN026 23/21 Q1011 NOSIG
Conditions at: VVCI (CAT VI , VN) observed 1900 UTC 28 October 2020
Temperature: 23.0°C (73°F)
Dewpoint: 21.0°C (70°F) [RH = 89%]
Pressure (altimeter): 29.85 inches Hg (1011.0 mb)
Winds: from the NE (40 degrees) at 9 MPH (8 knots; 4.1 m/s)
Visibility: 6 or more miles (10+ km)
Ceiling: 2600 feet AGL
Clouds: broken clouds at 2600 feet AGL
Weather: no significant weather observed at this time

Forecast for: VVCI (CAT VI , VN)
Text: TAF VVCI 300500Z 3006/3106 35005KT 7000 SCT013 BKN050
Forecast period: 0600 UTC 30 October 2020 to 0600 UTC 31 October 2020
Forecast type: FROM: standard forecast or significant change
Winds: from the N (350 degrees) at 6 MPH (5 knots; 2.6 m/s)
Visibility: 4 miles (7 km)
Ceiling: 5000 feet AGL
Clouds: scattered clouds at 1300 feet AGL
broken clouds at 5000 feet AGL
Weather: no significant weather forecast for this period
Text: TEMPO 3009/3015 4000 RA BKN008 BKN050
Forecast period: 0900 to 1500 UTC 30 October 2020
Forecast type: TEMPORARY: The following changes expected for less than half the time period
Visibility: 2.49 miles (4.01 km)
Ceiling: 800 feet AGL
Clouds: broken clouds at 800 feet AGL
broken clouds at 5000 feet AGL
Weather: RA  (moderate rain)